Time;durP1;ratioP1;P1;durP2;ratioP2;P2;SDS_P1;SDS_P2;PMS_P1;PMS_P2;Temp;Humidity;BMP_temperature;BMP_pressure;BME280_temperature;BME280_humidity;BME280_pressure;Samples;Min_cycle;Max_cycle;Signal;HPM_P1;HPM_P2
2023/01/22 05:02:17;;;;;;;;;;;0.20;99.90;;;;;;6197028;22;1318942;-80
2023/01/22 05:04:43;;;;;;;20.73;8.45;;;0.30;99.90;;;;;;6281372;22;19917;-81
2023/01/22 05:07:08;;;;;;;20.77;9.10;;;0.30;99.90;;;;;;6308262;22;20015;-79
2023/01/22 05:09:34;;;;;;;17.50;7.95;;;0.30;99.90;;;;;;6307901;22;20463;-80
2023/01/22 05:11:59;;;;;;;16.65;8.00;;;0.30;99.90;;;;;;6298542;22;20019;-79
2023/01/22 05:14:25;;;;;;;16.50;7.90;;;0.30;99.90;;;;;;6305648;22;20019;-81
2023/01/22 05:16:51;;;;;;;15.60;6.95;;;0.30;99.90;;;;;;6305523;22;20420;-81
2023/01/22 05:19:16;;;;;;;15.60;7.28;;;0.30;99.90;;;;;;6306251;22;20371;-79
2023/01/22 05:21:42;;;;;;;14.50;7.13;;;0.40;99.90;;;;;;6307980;22;20011;-79
2023/01/22 05:24:08;;;;;;;17.08;6.75;;;0.40;99.90;;;;;;6306293;22;20012;-76
2023/01/22 05:26:34;;;;;;;13.27;6.25;;;0.40;99.90;;;;;;6307460;22;20007;-80
2023/01/22 05:28:59;;;;;;;15.13;6.50;;;0.40;99.90;;;;;;6308173;22;20314;-77
2023/01/22 05:31:25;;;;;;;17.02;7.57;;;0.50;99.90;;;;;;6307831;22;20021;-81
2023/01/22 05:33:50;;;;;;;12.25;6.50;;;0.50;99.90;;;;;;6308228;22;20015;-80
2023/01/22 05:36:16;;;;;;;12.25;6.57;;;0.50;99.90;;;;;;6310044;22;20007;-79
2023/01/22 05:38:42;;;;;;;11.77;6.38;;;0.50;99.90;;;;;;6307892;22;20408;-78
2023/01/22 05:41:07;;;;;;;13.23;6.53;;;0.50;99.90;;;;;;6309775;22;20109;-78
2023/01/22 05:43:36;;;;;;;14.18;6.22;;;0.60;99.90;;;;;;6309653;22;20014;-77
2023/01/22 05:46:01;;;;;;;14.38;5.88;;;0.60;99.90;;;;;;6307968;22;20015;-79
2023/01/22 05:48:27;;;;;;;11.30;5.95;;;0.60;99.90;;;;;;6309577;22;20007;-77
2023/01/22 05:50:52;;;;;;;13.23;5.85;;;0.60;99.90;;;;;;6307521;22;20090;-79
2023/01/22 05:53:18;;;;;;;14.27;5.90;;;0.60;99.90;;;;;;6308145;22;20082;-77
2023/01/22 05:55:44;;;;;;;13.20;6.00;;;0.60;99.90;;;;;;6308165;22;20082;-79
2023/01/22 05:58:09;;;;;;;12.48;6.47;;;0.60;99.90;;;;;;6309970;22;20484;-77
2023/01/22 06:00:35;;;;;;;16.38;6.70;;;0.60;99.90;;;;;;6309051;22;20015;-77
2023/01/22 06:03:01;;;;;;;12.55;5.75;;;0.60;99.90;;;;;;6309307;22;20314;-76
2023/01/22 06:05:26;;;;;;;11.20;5.63;;;0.70;99.90;;;;;;6307791;22;20115;-80
2023/01/22 06:07:52;;;;;;;13.80;6.35;;;0.70;99.90;;;;;;6309443;22;20289;-79
2023/01/22 06:10:18;;;;;;;18.10;7.75;;;0.70;99.90;;;;;;6307457;22;20072;-79
2023/01/22 06:12:44;;;;;;;13.85;6.30;;;0.70;99.90;;;;;;6309629;22;20052;-80
2023/01/22 06:15:10;;;;;;;12.57;6.03;;;0.60;99.90;;;;;;6307517;22;20011;-77
2023/01/22 06:17:37;;;;;;;15.18;6.55;;;0.70;99.90;;;;;;6309536;22;20015;-77
2023/01/22 06:20:04;;;;;;;13.70;6.43;;;0.70;99.90;;;;;;6282157;22;20019;-78
2023/01/22 06:22:30;;;;;;;10.95;5.88;;;0.60;99.90;;;;;;6309378;22;20478;-77
2023/01/22 06:24:55;;;;;;;12.13;6.15;;;0.70;99.90;;;;;;6307901;22;20015;-80
2023/01/22 06:27:21;;;;;;;15.20;6.32;;;0.70;99.90;;;;;;6309142;22;20039;-76
2023/01/22 06:29:46;;;;;;;12.40;6.35;;;0.70;99.90;;;;;;6309260;22;20070;-79
2023/01/22 06:32:12;;;;;;;16.35;6.28;;;0.70;99.90;;;;;;6308472;22;20017;-77
2023/01/22 06:34:38;;;;;;;14.50;5.93;;;0.70;99.90;;;;;;6307423;22;20011;-77
2023/01/22 06:37:04;;;;;;;12.80;6.32;;;0.70;99.90;;;;;;6307392;22;20114;-76
2023/01/22 06:39:29;;;;;;;11.48;6.18;;;0.70;99.90;;;;;;6308041;22;20093;-78
2023/01/22 06:41:55;;;;;;;12.40;6.50;;;0.70;99.90;;;;;;6309407;22;20424;-79
2023/01/22 06:44:21;;;;;;;9.57;5.60;;;0.70;99.90;;;;;;6308974;22;20328;-79
2023/01/22 06:46:46;;;;;;;8.82;5.35;;;0.70;99.90;;;;;;6308029;22;20011;-81
2023/01/22 06:49:12;;;;;;;15.32;6.30;;;0.70;99.90;;;;;;6309082;22;20015;-78
2023/01/22 06:51:39;;;;;;;12.40;5.70;;;0.70;99.90;;;;;;6307680;22;20337;-82
2023/01/22 06:54:05;;;;;;;14.27;6.50;;;0.70;99.90;;;;;;6307553;22;20069;-77
2023/01/22 06:56:30;;;;;;;11.45;5.68;;;0.70;99.90;;;;;;6309177;22;20015;-81
2023/01/22 06:58:56;;;;;;;12.18;6.15;;;0.70;99.90;;;;;;6306740;22;20347;-75
2023/01/22 07:01:22;;;;;;;15.07;6.47;;;0.70;99.90;;;;;;6306705;22;20018;-77
2023/01/22 07:03:47;;;;;;;10.35;6.13;;;0.70;99.90;;;;;;6281456;22;20007;-80
2023/01/22 07:06:14;;;;;;;13.88;6.20;;;0.70;99.90;;;;;;6307038;22;20019;-81
2023/01/22 07:08:40;;;;;;;10.88;6.00;;;0.70;99.90;;;;;;6309230;22;20098;-78
2023/01/22 07:11:06;;;;;;;9.15;5.78;;;0.70;99.90;;;;;;6308590;22;20405;-79
2023/01/22 07:13:31;;;;;;;11.88;6.75;;;0.70;99.90;;;;;;6308978;22;20018;-80
2023/01/22 07:16:01;;;;;;;14.25;6.13;;;0.70;99.90;;;;;;6306488;22;20011;-78
2023/01/22 07:18:27;;;;;;;25.98;6.95;;;0.60;99.90;;;;;;6306085;22;20092;-79
2023/01/22 07:20:53;;;;;;;12.65;5.40;;;0.70;99.90;;;;;;6305999;22;20011;-79
2023/01/22 07:23:19;;;;;;;12.27;6.22;;;0.70;99.90;;;;;;6306105;22;20015;-80
2023/01/22 07:25:45;;;;;;;11.27;6.43;;;0.70;99.90;;;;;;6306096;22;20011;-77
2023/01/22 07:28:13;;;;;;;13.95;6.40;;;0.70;99.90;;;;;;6306540;22;20065;-79
2023/01/22 07:30:45;;;;;;;11.13;6.22;;;0.60;99.90;;;;;;6307924;22;20032;-80
2023/01/22 07:33:11;;;;;;;12.77;6.32;;;0.70;99.90;;;;;;6307932;22;20008;-79
2023/01/22 07:35:37;;;;;;;15.35;6.93;;;0.70;99.90;;;;;;6306626;22;20052;-78
2023/01/22 07:38:03;;;;;;;15.25;6.70;;;0.60;99.90;;;;;;6306640;22;20494;-77
2023/01/22 07:40:29;;;;;;;12.90;6.40;;;0.60;99.90;;;;;;6306821;22;20073;-77
2023/01/22 07:42:55;;;;;;;16.42;6.60;;;0.60;99.90;;;;;;6307107;22;20023;-80
2023/01/22 07:45:23;;;;;;;15.38;6.63;;;0.60;99.90;;;;;;6306329;22;20014;-78
2023/01/22 07:47:53;;;;;;;15.32;6.78;;;0.60;99.90;;;;;;6280383;22;20011;-80
2023/01/22 07:50:20;;;;;;;11.77;6.25;;;0.60;99.90;;;;;;6305770;22;20018;-78
2023/01/22 07:52:47;;;;;;;12.52;7.05;;;0.60;99.90;;;;;;6306006;22;20020;-78
2023/01/22 07:55:13;;;;;;;12.73;6.85;;;0.60;99.90;;;;;;6308633;22;20018;-78
2023/01/22 07:57:41;;;;;;;13.57;7.38;;;0.60;99.90;;;;;;6308889;22;20011;-78
2023/01/22 08:00:10;;;;;;;16.38;7.40;;;0.60;99.90;;;;;;6307662;22;20337;-78
2023/01/22 08:02:37;;;;;;;14.18;6.93;;;0.60;99.90;;;;;;6306255;22;20011;-76
2023/01/22 08:05:04;;;;;;;12.77;7.25;;;0.60;99.90;;;;;;6306123;22;20015;-78
2023/01/22 08:07:30;;;;;;;12.20;6.90;;;0.60;99.90;;;;;;6306441;22;20082;-76
2023/01/22 08:09:56;;;;;;;15.50;7.25;;;0.60;99.90;;;;;;6307043;22;20327;-79
2023/01/22 08:12:22;;;;;;;16.30;7.50;;;0.60;99.90;;;;;;6280808;22;20090;-77
2023/01/22 08:14:48;;;;;;;15.52;6.57;;;0.60;99.90;;;;;;6305753;22;20072;-79
2023/01/22 08:17:13;;;;;;;17.48;7.10;;;0.50;99.90;;;;;;6305697;22;20046;-78
2023/01/22 08:19:39;;;;;;;13.43;7.15;;;0.50;99.90;;;;;;6305857;22;20016;-80
2023/01/22 08:22:04;;;;;;;15.50;6.55;;;0.50;99.90;;;;;;6308004;22;20018;-77
2023/01/22 08:24:30;;;;;;;15.25;8.00;;;0.50;99.90;;;;;;6305826;22;20015;-79
2023/01/22 08:26:56;;;;;;;12.65;6.78;;;0.50;99.90;;;;;;6306716;22;20015;-76
2023/01/22 08:29:22;;;;;;;22.30;8.35;;;0.50;99.90;;;;;;6306038;22;20018;-80
2023/01/22 08:31:49;;;;;;;20.60;7.45;;;0.50;99.90;;;;;;6306065;22;20019;-79
2023/01/22 08:34:15;;;;;;;15.82;7.78;;;0.50;99.90;;;;;;6306580;22;20069;-79
2023/01/22 08:36:41;;;;;;;14.60;8.05;;;0.50;99.90;;;;;;6308402;22;20333;-80
2023/01/22 08:39:06;;;;;;;14.52;7.70;;;0.40;99.90;;;;;;6306347;22;20016;-80
2023/01/22 08:41:32;;;;;;;13.98;8.13;;;0.40;99.90;;;;;;6306460;22;20011;-80
2023/01/22 08:43:58;;;;;;;16.52;8.38;;;0.40;99.90;;;;;;6306557;22;20018;-77
2023/01/22 08:46:23;;;;;;;15.40;8.20;;;0.40;99.90;;;;;;6306422;22;20011;-78
2023/01/22 08:48:49;;;;;;;12.93;7.93;;;0.40;99.90;;;;;;6306389;22;20026;-82
2023/01/22 08:51:15;;;;;;;17.70;9.18;;;0.40;99.90;;;;;;6307999;22;20026;-78
2023/01/22 08:53:41;;;;;;;18.05;9.75;;;0.40;99.90;;;;;;6306308;22;20022;-80
2023/01/22 08:56:07;;;;;;;23.52;10.02;;;0.40;99.90;;;;;;6305987;22;20011;-80
2023/01/22 08:58:33;;;;;;;17.17;9.50;;;0.40;99.90;;;;;;6307765;22;20078;-80
2023/01/22 09:00:58;;;;;;;20.55;9.95;;;0.40;99.90;;;;;;6307003;22;20046;-78
2023/01/22 09:03:24;;;;;;;17.52;9.88;;;0.40;99.90;;;;;;6308960;22;20008;-78
2023/01/22 09:05:50;;;;;;;15.25;8.05;;;0.40;99.90;;;;;;6308246;22;20011;-80
2023/01/22 09:08:16;;;;;;;19.13;9.32;;;0.40;99.90;;;;;;6308190;22;20022;-78
2023/01/22 09:10:42;;;;;;;18.88;9.75;;;0.40;99.90;;;;;;6308111;22;20026;-80
2023/01/22 09:13:09;;;;;;;16.90;8.60;;;0.40;99.90;;;;;;6309554;22;20061;-80
2023/01/22 09:15:35;;;;;;;18.80;9.30;;;0.40;99.90;;;;;;6308473;22;20015;-79
2023/01/22 09:18:01;;;;;;;16.08;8.40;;;0.40;99.90;;;;;;6309606;22;20337;-77
2023/01/22 09:20:27;;;;;;;18.58;9.48;;;0.50;99.90;;;;;;6307994;22;20015;-77
2023/01/22 09:22:53;;;;;;;19.10;10.02;;;0.50;99.90;;;;;;6309783;22;20046;-80
2023/01/22 09:25:19;;;;;;;20.17;9.63;;;0.50;99.90;;;;;;6308158;22;20011;-77
2023/01/22 09:27:45;;;;;;;20.13;9.90;;;0.50;99.90;;;;;;6307937;22;20015;-80
2023/01/22 09:30:13;;;;;;;17.25;10.13;;;0.60;99.90;;;;;;6307981;22;20033;-77
2023/01/22 09:32:39;;;;;;;18.65;9.93;;;0.60;99.90;;;;;;6308441;22;20072;-80
2023/01/22 09:35:05;;;;;;;16.88;9.07;;;0.60;99.90;;;;;;6310104;22;20165;-78
2023/01/22 09:37:31;;;;;;;17.33;9.35;;;0.70;99.90;;;;;;6308357;22;20008;-80
2023/01/22 09:39:56;;;;;;;13.25;8.23;;;0.70;99.90;;;;;;6308383;22;20375;-79
2023/01/22 09:42:28;;;;;;;16.00;9.38;;;0.70;99.90;;;;;;6309520;22;20082;-78
2023/01/22 09:45:01;;;;;;;17.00;9.00;;;0.70;99.90;;;;;;6308406;22;20329;-79
2023/01/22 09:47:57;;;;;;;16.30;9.48;;;0.80;99.90;;;;;;6310063;22;20015;-78
2023/01/22 09:50:26;;;;;;;17.27;8.70;;;0.80;99.90;;;;;;6279626;22;20399;-79
2023/01/22 09:52:55;;;;;;;17.77;9.27;;;0.90;99.90;;;;;;6308570;22;20349;-79
2023/01/22 09:55:23;;;;;;;17.58;9.43;;;0.80;99.90;;;;;;6309401;22;20061;-77
2023/01/22 09:57:52;;;;;;;16.13;8.27;;;0.90;99.90;;;;;;6307786;22;20440;-79
2023/01/22 10:00:28;;;;;;;14.93;8.68;;;0.90;99.90;;;;;;6281587;22;20025;-77
2023/01/22 10:03:00;;;;;;;13.95;8.85;;;1.00;99.90;;;;;;6307842;22;20018;-79
2023/01/22 10:05:35;;;;;;;14.13;8.57;;;1.00;99.90;;;;;;6307896;22;20015;-79
2023/01/22 10:08:11;;;;;;;12.40;8.27;;;1.00;99.90;;;;;;6307856;22;20355;-77
2023/01/22 10:10:37;;;;;;;14.05;8.50;;;1.10;99.90;;;;;;6281738;22;20245;-80
2023/01/22 10:13:12;;;;;;;16.55;9.20;;;1.10;99.90;;;;;;6307459;22;20015;-79
2023/01/22 10:15:38;;;;;;;16.20;9.00;;;1.10;99.90;;;;;;6307597;22;20051;-78
2023/01/22 10:18:15;;;;;;;17.27;9.07;;;1.20;99.90;;;;;;6309472;22;20003;-77
2023/01/22 10:20:41;;;;;;;15.32;8.07;;;1.30;99.90;;;;;;6307340;22;20015;-78
2023/01/22 10:23:19;;;;;;;12.18;7.85;;;1.30;99.90;;;;;;6307137;22;20030;-77
2023/01/22 10:25:45;;;;;;;16.48;8.73;;;1.30;99.90;;;;;;6307113;22;20046;-78
2023/01/22 10:28:13;;;;;;;14.95;7.65;;;1.40;99.90;;;;;;6306914;22;20015;-77
2023/01/22 10:30:47;;;;;;;12.80;7.20;;;1.40;99.90;;;;;;6306921;22;20016;-76
2023/01/22 10:33:16;;;;;;;20.15;8.10;;;1.40;99.90;;;;;;6280323;22;20052;-78
2023/01/22 10:35:45;;;;;;;14.57;7.63;;;1.40;99.90;;;;;;6305889;22;20049;-78
2023/01/22 10:38:29;;;;;;;15.65;7.97;;;1.50;99.90;;;;;;6308522;22;20007;-77
2023/01/22 10:41:00;;;;;;;13.15;7.82;;;1.50;99.90;;;;;;6283885;22;20038;-76
2023/01/22 10:43:32;;;;;;;14.38;7.68;;;1.50;99.90;;;;;;6318728;22;20011;-73
2023/01/22 10:46:04;;;;;;;14.27;7.88;;;1.50;99.90;;;;;;6308654;22;20090;-79
2023/01/22 10:48:29;;;;;;;12.07;7.53;;;1.50;99.90;;;;;;6315402;22;20011;-79
2023/01/22 10:51:14;;;;;;;15.20;7.60;;;1.60;99.90;;;;;;6310146;22;20015;-80
2023/01/22 10:53:59;;;;;;;14.27;7.35;;;1.60;99.90;;;;;;6307823;22;20015;-79
2023/01/22 10:56:31;;;;;;;16.98;7.63;;;1.70;99.90;;;;;;6307590;22;20022;-78
2023/01/22 10:59:00;;;;;;;12.40;6.35;;;1.70;99.90;;;;;;6307393;22;20015;-75
2023/01/22 11:01:33;;;;;;;12.00;6.80;;;1.70;99.90;;;;;;6306748;22;20042;-79
2023/01/22 11:04:13;;;;;;;11.30;6.50;;;1.80;99.90;;;;;;6306561;22;20042;-77
2023/01/22 11:06:53;;;;;;;11.00;6.53;;;1.80;99.90;;;;;;6280728;22;20007;-80
2023/01/22 11:09:34;;;;;;;15.18;6.93;;;1.80;99.90;;;;;;6307468;22;20046;-77
2023/01/22 11:12:14;;;;;;;12.07;6.32;;;1.80;99.90;;;;;;6306603;22;20022;-79
2023/01/22 11:14:40;;;;;;;13.05;7.00;;;1.90;99.90;;;;;;6306602;22;20382;-79
2023/01/22 11:17:25;;;;;;;13.60;7.35;;;1.90;99.90;;;;;;6306265;22;20019;-80
2023/01/22 11:20:03;;;;;;;13.85;7.00;;;1.90;99.90;;;;;;6306558;22;20011;-80
2023/01/22 11:22:38;;;;;;;13.30;7.40;;;2.00;99.90;;;;;;6308148;22;20026;-81
2023/01/22 11:25:09;;;;;;;12.90;7.30;;;2.00;99.90;;;;;;6306170;22;20015;-77
2023/01/22 11:27:48;;;;;;;14.35;6.55;;;2.00;99.90;;;;;;6308427;22;20228;-79
2023/01/22 11:30:22;;;;;;;12.70;7.70;;;2.10;99.90;;;;;;6280196;22;20085;-81
2023/01/22 11:32:51;;;;;;;13.07;7.22;;;2.10;99.90;;;;;;6306100;22;20089;-77
2023/01/22 11:35:16;;;;;;;11.13;6.70;;;2.10;99.90;;;;;;6306096;22;20015;-79
2023/01/22 11:38:23;;;;;;;16.27;7.20;;;2.10;99.90;;;;;;6306162;22;20345;-81
2023/01/22 11:41:18;;;;;;;14.80;7.13;;;2.20;99.90;;;;;;6306366;22;20022;-79
2023/01/22 11:43:59;;;;;;;12.20;6.95;;;2.20;99.90;;;;;;6304957;22;20106;-79
2023/01/22 11:46:51;;;;;;;18.65;7.60;;;2.30;99.90;;;;;;6305918;22;20011;-79
2023/01/22 11:49:22;;;;;;;12.65;6.97;;;2.20;99.90;;;;;;6305852;22;20065;-79
2023/01/22 11:52:12;;;;;;;15.43;7.60;;;2.30;99.90;;;;;;6307909;22;20415;-77
2023/01/22 11:54:54;;;;;;;14.45;7.10;;;2.30;99.90;;;;;;6306162;22;20022;-78
2023/01/22 11:57:35;;;;;;;13.25;6.82;;;2.30;99.90;;;;;;6306594;22;20019;-80
2023/01/22 12:00:25;;;;;;;12.35;6.78;;;2.30;99.90;;;;;;6308244;22;20058;-78
2023/01/22 12:03:00;;;;;;;13.23;6.65;;;2.30;99.90;;;;;;6307050;22;20039;-78
2023/01/22 12:05:34;;;;;;;13.20;7.30;;;2.30;99.90;;;;;;6280026;22;20049;-80
2023/01/22 12:08:16;;;;;;;15.27;7.47;;;2.30;99.90;;;;;;6307602;22;20393;-78
2023/01/22 12:11:00;;;;;;;12.80;7.32;;;2.40;99.90;;;;;;6305711;22;20022;-81
2023/01/22 12:13:30;;;;;;;11.90;6.53;;;2.40;99.90;;;;;;6305861;22;20015;-80
2023/01/22 12:16:32;;;;;;;12.98;7.10;;;2.40;99.90;;;;;;6307629;22;20011;-79
2023/01/22 12:19:19;;;;;;;14.85;6.70;;;2.40;99.90;;;;;;6307521;22;20012;-79
2023/01/22 12:22:00;;;;;;;15.95;6.63;;;2.40;99.90;;;;;;6305978;22;20082;-79
2023/01/22 12:24:46;;;;;;;11.80;6.60;;;2.50;99.90;;;;;;6280029;22;20018;-76
2023/01/22 12:27:39;;;;;;;16.05;7.25;;;2.50;99.90;;;;;;6305372;22;20015;-80
2023/01/22 12:30:17;;;;;;;17.58;7.63;;;2.50;99.90;;;;;;6305195;22;20023;-80
2023/01/22 12:32:47;;;;;;;13.43;6.88;;;2.50;99.90;;;;;;6305836;22;20019;-80
2023/01/22 12:35:17;;;;;;;10.32;6.90;;;2.50;99.90;;;;;;6307352;22;20015;-77
2023/01/22 12:37:45;;;;;;;11.85;6.65;;;2.50;99.90;;;;;;6306423;22;20312;-77
2023/01/22 12:40:23;;;;;;;14.88;7.10;;;2.50;99.90;;;;;;6305646;22;20022;-79
2023/01/22 12:42:58;;;;;;;14.48;7.10;;;2.50;99.90;;;;;;6305905;22;20011;-79
2023/01/22 12:45:51;;;;;;;14.68;7.25;;;2.40;99.90;;;;;;6306202;22;20065;-78
2023/01/22 12:48:34;;;;;;;15.38;7.15;;;2.40;99.90;;;;;;6286175;22;20011;-78
2023/01/22 12:51:00;;;;;;;14.68;8.10;;;2.40;99.90;;;;;;6305804;22;20015;-78
2023/01/22 12:53:27;;;;;;;13.18;7.63;;;2.40;99.90;;;;;;6280161;22;20505;-79
2023/01/22 12:56:08;;;;;;;14.38;7.55;;;2.40;99.90;;;;;;6307354;22;20039;-80
2023/01/22 12:58:36;;;;;;;19.00;8.07;;;2.40;99.90;;;;;;6306215;22;20377;-81
2023/01/22 13:01:21;;;;;;;14.35;7.95;;;2.40;99.90;;;;;;6306359;22;20020;-79
2023/01/22 13:03:58;;;;;;;13.63;7.50;;;2.40;99.90;;;;;;6305582;22;20026;-78
2023/01/22 13:06:35;;;;;;;18.77;7.53;;;2.40;99.90;;;;;;6305882;22;20015;-78
2023/01/22 13:09:01;;;;;;;15.75;7.63;;;2.40;99.90;;;;;;6307060;22;20069;-78
2023/01/22 13:11:29;;;;;;;16.42;8.43;;;2.40;99.90;;;;;;6307438;22;20057;-78
2023/01/22 13:14:06;;;;;;;16.98;8.50;;;2.40;99.90;;;;;;6305538;22;20019;-78
2023/01/22 13:16:34;;;;;;;13.45;7.78;;;2.40;99.90;;;;;;6307203;22;20011;-79
2023/01/22 13:19:16;;;;;;;12.13;7.63;;;2.40;99.90;;;;;;6307043;22;20318;-77
2023/01/22 13:21:42;;;;;;;14.68;8.13;;;2.40;99.90;;;;;;6307294;22;20018;-79
2023/01/22 13:24:15;;;;;;;16.48;8.00;;;2.40;99.90;;;;;;6305566;22;20011;-80
2023/01/22 13:26:59;;;;;;;15.98;8.15;;;2.40;99.90;;;;;;6305762;22;20011;-79
2023/01/22 13:29:35;;;;;;;15.80;8.05;;;2.50;99.90;;;;;;6305470;22;20015;-77
2023/01/22 13:32:13;;;;;;;15.27;8.02;;;2.50;99.90;;;;;;6305441;22;20015;-79
2023/01/22 13:34:38;;;;;;;19.13;7.93;;;2.40;99.90;;;;;;6305818;22;20086;-80
2023/01/22 13:37:05;;;;;;;16.05;8.23;;;2.50;99.90;;;;;;6305376;22;20140;-80
2023/01/22 13:39:33;;;;;;;15.07;7.65;;;2.50;99.90;;;;;;6306954;22;20076;-80
2023/01/22 13:42:03;;;;;;;15.73;8.43;;;2.50;99.90;;;;;;6307306;22;20022;-78
2023/01/22 13:44:42;;;;;;;13.65;7.88;;;2.50;99.90;;;;;;6305426;22;20039;-78
2023/01/22 13:47:30;;;;;;;11.70;6.97;;;2.50;99.90;;;;;;6306360;22;20060;-79
2023/01/22 13:49:56;;;;;;;18.08;7.50;;;2.50;99.90;;;;;;6307388;22;20047;-78
2023/01/22 13:52:22;;;;;;;13.77;7.25;;;2.50;99.90;;;;;;6308887;22;20061;-80
2023/01/22 13:55:14;;;;;;;14.27;7.68;;;2.50;99.90;;;;;;6308897;22;20014;-79
2023/01/22 13:57:51;;;;;;;15.30;7.28;;;2.50;99.90;;;;;;6281340;22;20086;-78
2023/01/22 14:00:31;;;;;;;10.93;6.72;;;2.50;99.90;;;;;;6308757;22;20041;-78
2023/01/22 14:02:57;;;;;;;11.57;7.13;;;2.50;99.90;;;;;;6307182;22;20064;-76
2023/01/22 14:05:26;;;;;;;15.40;8.27;;;2.50;99.90;;;;;;6307003;22;20035;-80
2023/01/22 14:08:04;;;;;;;27.10;9.95;;;2.50;99.90;;;;;;6308632;22;20314;-79
2023/01/22 14:10:30;;;;;;;16.65;9.10;;;2.50;99.90;;;;;;6307572;22;20448;-77
2023/01/22 14:13:06;;;;;;;16.48;9.00;;;2.50;99.90;;;;;;6308473;22;20015;-80
2023/01/22 14:15:33;;;;;;;14.05;7.75;;;2.50;99.90;;;;;;6308585;22;20019;-76
2023/01/22 14:18:16;;;;;;;17.25;8.40;;;2.40;99.90;;;;;;6307125;22;20336;-79
2023/01/22 14:20:44;;;;;;;16.75;8.07;;;2.40;99.90;;;;;;6280980;22;20026;-80
2023/01/22 14:23:10;;;;;;;13.65;7.43;;;2.40;99.90;;;;;;6309306;22;20051;-79
2023/01/22 14:25:47;;;;;;;12.43;6.97;;;2.40;99.90;;;;;;6306899;22;20011;-80
2023/01/22 14:28:13;;;;;;;17.38;7.95;;;2.40;99.90;;;;;;6309165;22;20004;-77
2023/01/22 14:30:39;;;;;;;19.58;8.18;;;2.40;99.90;;;;;;6307029;22;20015;-77
2023/01/22 14:33:05;;;;;;;18.20;8.48;;;2.40;99.90;;;;;;6308938;22;20022;-79
2023/01/22 14:35:31;;;;;;;12.77;7.10;;;2.40;99.90;;;;;;6308638;22;20065;-78
2023/01/22 14:37:56;;;;;;;14.13;7.20;;;2.40;99.90;;;;;;6307222;22;20019;-76
2023/01/22 14:40:24;;;;;;;17.27;7.32;;;2.40;99.90;;;;;;6307000;22;20025;-77
2023/01/22 14:42:50;;;;;;;16.63;8.05;;;2.40;99.90;;;;;;6307249;22;20017;-77
2023/01/22 14:45:17;;;;;;;19.33;7.95;;;2.40;99.90;;;;;;6306918;22;20015;-80
2023/01/22 14:47:47;;;;;;;19.85;7.72;;;2.40;99.90;;;;;;6307147;22;20007;-77
2023/01/22 14:50:12;;;;;;;17.88;7.63;;;2.40;99.90;;;;;;6281096;22;20011;-77
2023/01/22 14:52:38;;;;;;;18.75;7.53;;;2.40;99.90;;;;;;6308516;22;20018;-79
2023/01/22 14:55:04;;;;;;;15.38;7.35;;;2.40;99.90;;;;;;6309085;22;20083;-79
2023/01/22 14:57:30;;;;;;;15.68;8.07;;;2.40;99.90;;;;;;6308882;22;20011;-78
2023/01/22 14:59:56;;;;;;;13.25;7.07;;;2.40;99.90;;;;;;6308971;22;20057;-78
2023/01/22 15:02:21;;;;;;;15.23;8.23;;;2.40;99.90;;;;;;6306510;22;20026;-80
2023/01/22 15:04:47;;;;;;;18.50;8.00;;;2.40;99.90;;;;;;6308301;22;20007;-80
2023/01/22 15:07:13;;;;;;;16.42;8.40;;;2.40;99.90;;;;;;6308187;22;20011;-78
2023/01/22 15:09:39;;;;;;;15.45;7.55;;;2.40;99.90;;;;;;6306288;22;20015;-77
2023/01/22 15:12:05;;;;;;;12.20;6.93;;;2.40;99.90;;;;;;6308141;22;20012;-80
2023/01/22 15:14:34;;;;;;;20.38;8.05;;;2.40;99.90;;;;;;6308750;22;20003;-78
2023/01/22 15:16:59;;;;;;;17.35;8.38;;;2.40;99.90;;;;;;6306431;22;20007;-77
2023/01/22 15:19:25;;;;;;;14.38;7.80;;;2.40;99.90;;;;;;6280607;22;20345;-78
2023/01/22 15:21:50;;;;;;;17.35;8.40;;;2.40;99.90;;;;;;6306350;22;20015;-79
2023/01/22 15:24:16;;;;;;;19.15;7.85;;;2.40;99.90;;;;;;6280986;22;20007;-77
2023/01/22 15:26:42;;;;;;;16.25;7.13;;;2.40;99.90;;;;;;6306493;22;20340;-80
2023/01/22 15:29:11;;;;;;;19.30;8.75;;;2.40;99.90;;;;;;6307093;22;20026;-77
2023/01/22 15:31:37;;;;;;;16.50;8.15;;;2.40;99.90;;;;;;6307148;22;20019;-77
2023/01/22 15:34:03;;;;;;;16.17;8.23;;;2.40;99.90;;;;;;6315330;22;20042;-74
2023/01/22 15:36:30;;;;;;;17.30;7.80;;;2.30;99.90;;;;;;6320601;22;20011;-79
2023/01/22 15:38:55;;;;;;;17.67;8.20;;;2.40;99.90;;;;;;6309707;22;20047;-80
2023/01/22 15:41:26;;;;;;;20.27;9.07;;;2.30;99.90;;;;;;6307487;22;20018;-79
2023/01/22 15:43:54;;;;;;;21.67;8.75;;;2.30;99.90;;;;;;6307666;22;20013;-78
2023/01/22 15:46:22;;;;;;;19.60;8.65;;;2.40;99.90;;;;;;6306842;22;20007;-79
2023/01/22 15:48:48;;;;;;;18.35;9.20;;;2.30;99.90;;;;;;6307277;22;20011;-80
2023/01/22 15:51:14;;;;;;;19.92;8.02;;;2.30;99.90;;;;;;6308702;22;20003;-78
2023/01/22 15:53:41;;;;;;;20.42;9.63;;;2.40;99.90;;;;;;6308715;22;20012;-82
2023/01/22 15:56:07;;;;;;;17.25;8.77;;;2.30;99.90;;;;;;6307177;22;20506;-80
2023/01/22 15:58:33;;;;;;;16.05;8.85;;;2.30;99.90;;;;;;6306762;22;20012;-79
2023/01/22 16:00:59;;;;;;;19.05;10.02;;;2.30;99.90;;;;;;6307128;22;20022;-77
2023/01/22 16:03:25;;;;;;;22.92;10.23;;;2.30;99.90;;;;;;6306400;22;20018;-78
2023/01/22 16:05:51;;;;;;;19.70;9.23;;;2.30;99.90;;;;;;6308746;22;20003;-79
2023/01/22 16:08:16;;;;;;;23.95;8.88;;;2.30;99.90;;;;;;6309249;22;20308;-76
2023/01/22 16:10:42;;;;;;;16.35;8.38;;;2.30;99.90;;;;;;6306039;22;20015;-80
2023/01/22 16:13:07;;;;;;;18.75;8.68;;;2.30;99.90;;;;;;6308042;22;20015;-81
2023/01/22 16:15:33;;;;;;;20.75;8.40;;;2.30;99.90;;;;;;6307991;22;20011;-77
2023/01/22 16:17:59;;;;;;;18.50;9.20;;;2.30;99.90;;;;;;6306334;22;20015;-77
2023/01/22 16:20:26;;;;;;;18.60;9.30;;;2.30;99.90;;;;;;6308090;22;20061;-79
2023/01/22 16:22:52;;;;;;;20.90;8.48;;;2.30;99.90;;;;;;6306258;22;20061;-79
2023/01/22 16:25:18;;;;;;;19.90;8.63;;;2.30;99.90;;;;;;6308447;22;20041;-79
2023/01/22 16:27:44;;;;;;;15.75;7.80;;;2.30;99.90;;;;;;6306249;22;20348;-80
2023/01/22 16:30:11;;;;;;;18.55;8.82;;;2.30;99.90;;;;;;6305806;22;20019;-75
2023/01/22 16:32:41;;;;;;;18.52;8.35;;;2.30;99.90;;;;;;6305935;22;20055;-80
2023/01/22 16:35:08;;;;;;;19.02;8.73;;;2.30;99.90;;;;;;6308222;22;20424;-78
2023/01/22 16:37:34;;;;;;;17.33;8.85;;;2.30;99.90;;;;;;6306056;22;20345;-78
2023/01/22 16:40:00;;;;;;;19.45;8.27;;;2.30;99.90;;;;;;6305910;22;20018;-78
2023/01/22 16:42:30;;;;;;;16.25;8.05;;;2.30;99.90;;;;;;6307435;22;20391;-77
2023/01/22 16:44:56;;;;;;;21.35;8.63;;;2.30;99.90;;;;;;6307588;22;20493;-78
2023/01/22 16:47:21;;;;;;;19.83;9.25;;;2.30;99.90;;;;;;6306052;22;20007;-80
2023/01/22 16:49:47;;;;;;;20.67;9.27;;;2.30;99.90;;;;;;6305791;22;20011;-79
2023/01/22 16:52:13;;;;;;;20.48;9.43;;;2.20;99.90;;;;;;6305618;22;20362;-80
2023/01/22 16:54:41;;;;;;;19.20;9.45;;;2.30;99.90;;;;;;6307562;22;20050;-78
2023/01/22 16:57:08;;;;;;;22.77;9.77;;;2.30;99.90;;;;;;6306386;22;20346;-79
2023/01/22 16:59:35;;;;;;;18.73;9.13;;;2.20;99.90;;;;;;6305552;22;20025;-76
2023/01/22 17:02:03;;;;;;;22.83;9.30;;;2.20;99.90;;;;;;6305211;22;20433;-76
2023/01/22 17:04:29;;;;;;;21.42;10.68;;;2.20;99.90;;;;;;6306963;22;20061;-77
2023/01/22 17:06:57;;;;;;;20.00;9.23;;;2.20;99.90;;;;;;6306260;22;20011;-77
2023/01/22 17:09:25;;;;;;;21.80;9.85;;;2.20;99.90;;;;;;6305493;22;20019;-76
2023/01/22 17:11:53;;;;;;;21.67;9.80;;;2.20;99.90;;;;;;6307237;22;20071;-80
2023/01/22 17:14:22;;;;;;;23.90;10.65;;;2.20;99.90;;;;;;6305468;22;20046;-75
2023/01/22 17:16:48;;;;;;;23.40;10.68;;;2.20;99.90;;;;;;6305802;22;20072;-77
2023/01/22 17:19:14;;;;;;;18.50;9.85;;;2.20;99.90;;;;;;6306445;22;20023;-79
2023/01/22 17:21:40;;;;;;;20.77;9.70;;;2.20;99.90;;;;;;6306342;22;20035;-77
2023/01/22 17:24:06;;;;;;;27.83;10.07;;;2.20;99.90;;;;;;6307834;22;20008;-78
2023/01/22 17:26:32;;;;;;;17.60;8.43;;;2.20;99.90;;;;;;6307761;22;20011;-79
2023/01/22 17:28:57;;;;;;;22.58;9.15;;;2.20;99.90;;;;;;6308036;22;20015;-79
2023/01/22 17:31:25;;;;;;;21.67;9.93;;;2.20;99.90;;;;;;6309692;22;20047;-77
2023/01/22 17:33:54;;;;;;;19.67;9.13;;;2.20;99.90;;;;;;6309762;22;20030;-78
2023/01/22 17:36:22;;;;;;;18.63;9.23;;;2.20;99.90;;;;;;6307731;22;20019;-79
2023/01/22 17:38:49;;;;;;;22.77;8.98;;;2.20;99.90;;;;;;6307525;22;20015;-80
2023/01/22 17:41:20;;;;;;;19.77;9.18;;;2.20;99.90;;;;;;6307547;22;20049;-80
2023/01/22 17:43:47;;;;;;;19.60;10.10;;;2.20;99.90;;;;;;6307545;22;20011;-75
2023/01/22 17:46:18;;;;;;;23.05;10.45;;;2.20;99.90;;;;;;6307432;22;20038;-80
2023/01/22 17:48:45;;;;;;;24.23;9.95;;;2.20;99.90;;;;;;6306995;22;20011;-78
2023/01/22 17:51:14;;;;;;;24.38;10.13;;;2.20;99.90;;;;;;6307423;22;20374;-75
2023/01/22 17:53:41;;;;;;;25.58;10.02;;;2.20;99.90;;;;;;6307392;22;20011;-75
2023/01/22 17:56:17;;;;;;;20.92;8.93;;;2.20;99.90;;;;;;6309244;22;20015;-78
2023/01/22 17:58:50;;;;;;;;;;;2.20;99.90;;;;;;6307973;22;20341;-79
2023/01/22 18:01:18;;;;;;;23.20;9.20;;;2.20;99.90;;;;;;6307082;22;19960;-80